createdAt,value
2022-12-17T09:56:13.639Z,9.13
2022-12-17T09:58:58.698Z,7.90
2022-12-17T10:01:43.651Z,6.75
2022-12-17T10:04:28.842Z,6.12
2022-12-17T10:07:13.678Z,5.50
2022-12-17T10:09:58.746Z,5.77
2022-12-17T10:12:43.604Z,5.47
2022-12-17T10:15:28.556Z,5.32
2022-12-17T10:18:13.469Z,4.56
2022-12-17T10:20:58.402Z,4.77
2022-12-17T10:23:43.295Z,4.66
2022-12-17T10:26:28.310Z,4.65
2022-12-17T10:29:13.307Z,4.51
2022-12-17T10:31:58.070Z,4.45
2022-12-17T10:34:43.096Z,4.36
2022-12-17T10:37:27.956Z,4.16
2022-12-17T10:40:12.870Z,4.22
2022-12-17T10:42:57.732Z,4.16
2022-12-17T10:45:42.688Z,4.23
2022-12-17T10:48:27.890Z,4.34
2022-12-17T10:51:13.316Z,4.21
2022-12-17T10:53:58.345Z,4.25
2022-12-17T10:56:43.301Z,4.14
2022-12-17T10:59:28.335Z,3.97
2022-12-17T11:02:13.589Z,4.04
2022-12-17T11:04:58.711Z,4.07
2022-12-17T11:07:43.561Z,3.83
2022-12-17T11:10:28.464Z,3.83
2022-12-17T11:13:13.455Z,3.92
2022-12-17T11:15:58.299Z,3.89
2022-12-17T11:18:43.281Z,3.64
2022-12-17T11:21:28.618Z,4.01
2022-12-17T11:24:19.137Z,3.67
2022-12-17T11:27:07.412Z,3.82
2022-12-17T11:29:52.440Z,4.04
2022-12-17T11:32:37.729Z,4.13
2022-12-17T11:35:22.771Z,3.77
2022-12-17T11:38:07.702Z,3.86
2022-12-17T11:40:52.912Z,3.96
2022-12-17T11:43:38.119Z,3.82
2022-12-17T11:46:23.003Z,3.94
2022-12-17T11:49:08.500Z,3.98
2022-12-17T11:51:53.717Z,3.70
2022-12-17T11:54:38.766Z,3.77
2022-12-17T11:57:24.042Z,3.75
2022-12-17T12:00:09.043Z,3.84
2022-12-17T12:02:54.054Z,3.95
2022-12-17T12:05:40.255Z,3.55
2022-12-17T12:08:25.146Z,3.59
2022-12-17T12:11:10.139Z,3.91
2022-12-17T12:13:55.071Z,3.53
2022-12-17T12:16:43.755Z,3.68
2022-12-17T12:19:29.337Z,3.94
2022-12-17T12:22:14.339Z,3.92
2022-12-17T12:24:59.310Z,3.74
2022-12-17T12:27:44.255Z,3.65
2022-12-17T12:30:29.163Z,3.76
2022-12-17T12:33:14.133Z,3.85
2022-12-17T12:35:58.845Z,3.74
2022-12-17T12:38:46.441Z,3.44
2022-12-17T12:41:31.938Z,3.60
2022-12-17T12:44:16.801Z,3.63
2022-12-17T12:47:01.779Z,3.62
2022-12-17T12:49:46.601Z,3.26
2022-12-17T12:52:31.404Z,3.92
2022-12-17T12:55:16.298Z,3.78
2022-12-17T12:58:01.741Z,3.51
2022-12-17T13:00:46.706Z,3.91
2022-12-17T13:03:36.385Z,3.82
2022-12-17T13:06:24.463Z,3.57
2022-12-17T13:09:09.455Z,3.61
2022-12-17T13:11:54.837Z,3.65
2022-12-17T13:14:39.759Z,3.55
2022-12-17T13:17:24.451Z,3.45
2022-12-17T13:20:09.391Z,3.85
2022-12-17T13:22:54.653Z,3.60
2022-12-17T13:25:39.863Z,3.42
2022-12-17T13:28:25.943Z,3.41
2022-12-17T13:31:11.419Z,3.78
2022-12-17T13:33:56.567Z,3.81
2022-12-17T13:36:41.400Z,3.83
2022-12-17T13:39:26.301Z,3.76
2022-12-17T13:42:11.532Z,3.72
2022-12-17T13:44:56.704Z,3.44
2022-12-17T13:47:41.925Z,3.78
2022-12-17T13:50:35.866Z,3.78
2022-12-17T13:53:22.325Z,3.72
2022-12-17T13:56:07.631Z,3.66
2022-12-17T13:58:52.675Z,3.50
2022-12-17T14:01:38.141Z,3.69
2022-12-17T14:04:23.699Z,3.61
2022-12-17T14:07:08.372Z,3.73
2022-12-17T14:09:53.533Z,3.61
2022-12-17T14:12:39.012Z,3.83
2022-12-17T14:15:24.233Z,3.55
2022-12-17T14:18:09.674Z,3.53
2022-12-17T14:20:54.666Z,3.56
2022-12-17T14:23:39.591Z,3.73
2022-12-17T14:26:24.684Z,3.46
2022-12-17T14:29:10.105Z,3.67
2022-12-17T14:31:55.005Z,3.61
2022-12-17T14:34:40.012Z,3.81
2022-12-17T14:37:25.579Z,3.75
2022-12-17T14:40:10.828Z,3.86
2022-12-17T14:42:55.929Z,3.61
2022-12-17T14:45:41.394Z,3.38
2022-12-17T14:48:26.658Z,3.43
2022-12-17T14:51:11.515Z,3.69
2022-12-17T14:53:56.714Z,3.64
2022-12-17T14:56:42.331Z,3.83
